createdAt,value
2018-01-23T00:02:22.645Z,100847
2018-01-23T00:04:52.109Z,100833
2018-01-23T00:07:21.038Z,100835
2018-01-23T00:09:49.518Z,100845
2018-01-23T00:12:18.141Z,100835
2018-01-23T00:14:46.651Z,100854
2018-01-23T00:17:15.539Z,100862
2018-01-23T00:19:44.199Z,100864
2018-01-23T00:22:13.609Z,100870
2018-01-23T00:24:42.248Z,100853
2018-01-23T00:27:10.878Z,100857
2018-01-23T00:29:39.995Z,100868
2018-01-23T00:32:08.657Z,100871
2018-01-23T00:34:37.554Z,100884
2018-01-23T00:37:07.053Z,100895
2018-01-23T00:39:35.764Z,100889
2018-01-23T00:42:04.232Z,100900
2018-01-23T00:44:32.938Z,100895
2018-01-23T00:47:01.533Z,100899
2018-01-23T00:49:30.077Z,100895
2018-01-23T00:51:58.608Z,100895
2018-01-23T00:54:27.522Z,100898
2018-01-23T00:56:56.773Z,100908
2018-01-23T00:59:25.281Z,100912
2018-01-23T01:01:53.941Z,100907
2018-01-23T01:04:22.628Z,100918
2018-01-23T01:06:51.077Z,100932
2018-01-23T01:09:19.559Z,100927
2018-01-23T01:11:48.045Z,100938
2018-01-23T01:14:16.749Z,100950
2018-01-23T01:16:45.216Z,100944
2018-01-23T01:19:13.966Z,100947
2018-01-23T01:21:43.408Z,100926
2018-01-23T01:24:11.929Z,100938
2018-01-23T01:26:40.400Z,100944
2018-01-23T01:29:09.087Z,100936
2018-01-23T01:31:37.597Z,100953
2018-01-23T01:34:06.235Z,100956
2018-01-23T01:45:34.920Z,100964
2018-01-23T01:48:05.305Z,100970
2018-01-23T01:50:33.783Z,100972
2018-01-23T01:53:02.320Z,100970
2018-01-23T01:55:30.873Z,100982
2018-01-23T01:57:59.657Z,100981
2018-01-23T02:00:28.384Z,100975
2018-01-23T02:02:57.042Z,100970
2018-01-23T02:05:25.539Z,100987
2018-01-23T02:07:54.612Z,100989
2018-01-23T02:10:23.080Z,100991
2018-01-23T02:12:51.782Z,100985
2018-01-23T02:15:20.440Z,100997
2018-01-23T02:17:48.957Z,101000
2018-01-23T02:20:17.704Z,100995
2018-01-23T02:22:46.352Z,101000
2018-01-23T02:25:14.808Z,100994
2018-01-23T02:27:43.900Z,100999
2018-01-23T02:30:12.397Z,101011
2018-01-23T02:32:41.069Z,101011
2018-01-23T02:35:09.513Z,101011
2018-01-23T02:37:38.080Z,101020
2018-01-23T02:40:10.380Z,101013
2018-01-23T02:42:38.836Z,101015
2018-01-23T02:45:07.472Z,101007
2018-01-23T02:47:36.385Z,101015
2018-01-23T02:50:04.905Z,101015
2018-01-23T02:52:33.392Z,101015
2018-01-23T02:55:02.106Z,101021
2018-01-23T02:57:30.806Z,101022
2018-01-23T02:59:59.348Z,101017
2018-01-23T03:02:28.144Z,101025
2018-01-23T03:04:56.901Z,101026
2018-01-23T03:07:26.336Z,101023
2018-01-23T03:09:55.044Z,101032
2018-01-23T03:12:23.504Z,101033
2018-01-23T03:14:52.248Z,101023
2018-01-23T03:17:20.872Z,101040
2018-01-23T03:19:49.329Z,101032
2018-01-23T03:22:18.063Z,101045
2018-01-23T03:24:46.620Z,101037
2018-01-23T03:27:15.065Z,101053
2018-01-23T03:29:44.052Z,101057
2018-01-23T03:32:12.505Z,101054
2018-01-23T03:34:41.628Z,101063
2018-01-23T03:37:10.254Z,101067
2018-01-23T03:39:38.970Z,101075
2018-01-23T03:42:07.830Z,101073
2018-01-23T03:44:36.576Z,101082
2018-01-23T03:47:05.419Z,101087
2018-01-23T03:49:34.669Z,101092
2018-01-23T03:52:03.664Z,101091
2018-01-23T03:54:32.170Z,101083
2018-01-23T03:57:00.642Z,101088
2018-01-23T03:59:29.294Z,101095
2018-01-23T04:01:57.740Z,101102
2018-01-23T04:04:26.329Z,101101
2018-01-23T04:06:55.318Z,101099
2018-01-23T04:09:23.843Z,101103
2018-01-23T04:11:52.280Z,101115
2018-01-23T04:14:20.792Z,101104
2018-01-23T04:16:49.236Z,101115
2018-01-23T04:19:17.696Z,101114
2018-01-23T04:21:46.448Z,101114
2018-01-23T04:24:14.883Z,101120
2018-01-23T04:26:43.605Z,101122
2018-01-23T04:29:12.284Z,101118
2018-01-23T04:31:40.745Z,101131
2018-01-23T04:34:09.301Z,101135
2018-01-23T04:36:38.521Z,101130
2018-01-23T04:39:07.056Z,101136
2018-01-23T04:41:35.479Z,101140
2018-01-23T04:44:04.199Z,101139
2018-01-23T04:46:33.433Z,101145
2018-01-23T04:49:02.154Z,101158
2018-01-23T04:51:31.055Z,101154
2018-01-23T04:53:59.635Z,101155
2018-01-23T04:56:28.217Z,101161
2018-01-23T04:58:57.118Z,101154
2018-01-23T05:01:25.577Z,101151
2018-01-23T05:03:54.180Z,101158
2018-01-23T05:06:23.213Z,101155
2018-01-23T05:08:51.992Z,101161
2018-01-23T05:11:20.852Z,101163
2018-01-23T05:13:49.549Z,101158
2018-01-23T05:16:18.595Z,101164
2018-01-23T05:18:47.815Z,101173
2018-01-23T05:21:16.273Z,101174
2018-01-23T05:23:46.625Z,101176
2018-01-23T05:26:15.388Z,101182
2018-01-23T05:28:43.864Z,101184
2018-01-23T05:31:12.351Z,101185
2018-01-23T05:33:42.605Z,101180
2018-01-23T05:36:11.325Z,101188
2018-01-23T05:38:39.788Z,101192
2018-01-23T05:41:08.265Z,101188
2018-01-23T05:43:36.779Z,101186
2018-01-23T05:46:05.437Z,101189
2018-01-23T05:48:34.169Z,101189
2018-01-23T05:51:02.632Z,101194
2018-01-23T05:53:31.717Z,101194
2018-01-23T05:56:00.461Z,101209
2018-01-23T05:58:29.646Z,101201
2018-01-23T06:00:58.184Z,101207
2018-01-23T06:03:26.871Z,101201
2018-01-23T06:05:55.558Z,101209
2018-01-23T06:08:24.028Z,101217
2018-01-23T06:10:52.708Z,101224
2018-01-23T06:13:21.161Z,101226
2018-01-23T06:15:50.680Z,101227
2018-01-23T06:18:19.133Z,101233
2018-01-23T06:20:48.369Z,101239
2018-01-23T06:23:17.058Z,101235
2018-01-23T06:25:45.504Z,101248
2018-01-23T06:28:14.745Z,101257
2018-01-23T06:30:43.280Z,101243
2018-01-23T06:33:12.951Z,101254
2018-01-23T06:35:41.734Z,101241
2018-01-23T06:38:10.184Z,101257
2018-01-23T06:40:38.693Z,101251
2018-01-23T06:43:07.153Z,101262
2018-01-23T06:45:35.664Z,101257
2018-01-23T06:48:04.144Z,101261
2018-01-23T06:50:32.668Z,101268
2018-01-23T06:53:01.120Z,101272
2018-01-23T06:55:29.587Z,101277
2018-01-23T06:57:58.217Z,101290
2018-01-23T07:00:27.696Z,101291
2018-01-23T07:02:56.133Z,101296
2018-01-23T07:05:24.569Z,101294
2018-01-23T07:07:53.021Z,101291
2018-01-23T07:10:21.497Z,101295
2018-01-23T07:12:50.037Z,101306
2018-01-23T07:15:19.225Z,101312
2018-01-23T07:17:48.437Z,101305
2018-01-23T07:20:17.620Z,101303
2018-01-23T07:22:46.789Z,101317
2018-01-23T07:25:15.526Z,101319
2018-01-23T07:27:44.043Z,101324
2018-01-23T07:30:12.493Z,101321
2018-01-23T07:32:40.921Z,101323
2018-01-23T07:35:09.416Z,101326
2018-01-23T07:37:38.383Z,101325
2018-01-23T07:40:06.897Z,101326
2018-01-23T07:42:35.424Z,101329
2018-01-23T07:45:04.239Z,101340
2018-01-23T07:47:32.713Z,101339
2018-01-23T07:50:01.148Z,101339
2018-01-23T07:52:30.321Z,101385
2018-01-23T07:54:59.053Z,101344
2018-01-23T07:57:27.512Z,101342
2018-01-23T07:59:56.946Z,101344
2018-01-23T08:02:25.629Z,101338
2018-01-23T08:04:54.136Z,101345
2018-01-23T08:07:22.907Z,101366
2018-01-23T08:09:51.376Z,101371
2018-01-23T08:12:19.821Z,101374
2018-01-23T08:14:48.280Z,101372
2018-01-23T08:17:16.717Z,101371
2018-01-23T08:19:45.120Z,101371
2018-01-23T08:22:13.569Z,101381
2018-01-23T08:24:42.005Z,101375
2018-01-23T08:27:10.464Z,101387
2018-01-23T08:29:39.198Z,101379
2018-01-23T08:32:08.053Z,101360
2018-01-23T08:34:37.361Z,101391
2018-01-23T08:37:06.249Z,101397
2018-01-23T08:39:35.441Z,101394
2018-01-23T08:42:04.012Z,101402
2018-01-23T08:44:32.696Z,101403
2018-01-23T08:47:01.366Z,101402
2018-01-23T08:49:29.908Z,101399
2018-01-23T08:51:58.368Z,101397
2018-01-23T08:54:27.858Z,101412
2018-01-23T08:56:56.369Z,101401
2018-01-23T08:59:24.852Z,101404
2018-01-23T09:01:53.514Z,101401
2018-01-23T09:04:21.976Z,101401
2018-01-23T09:06:50.437Z,101410
2018-01-23T09:09:18.854Z,101409
2018-01-23T09:11:47.678Z,101409
2018-01-23T09:14:16.304Z,101383
2018-01-23T09:16:44.988Z,101396
2018-01-23T09:19:13.469Z,101396
2018-01-23T09:21:41.896Z,101393
2018-01-23T09:24:10.365Z,101409
2018-01-23T09:26:38.837Z,101406
2018-01-23T09:29:07.292Z,101408
2018-01-23T09:31:35.753Z,101412
2018-01-23T09:34:05.400Z,101414
2018-01-23T09:36:33.903Z,101413
2018-01-23T09:39:02.419Z,101415
2018-01-23T09:41:31.930Z,101418
2018-01-23T09:44:01.129Z,101422
2018-01-23T09:46:30.317Z,101425
2018-01-23T09:48:59.555Z,101422
2018-01-23T09:51:28.020Z,101427
2018-01-23T09:53:56.478Z,101436
2018-01-23T09:56:24.885Z,101426
2018-01-23T09:58:53.305Z,101440
2018-01-23T10:01:22.646Z,101442
2018-01-23T10:03:51.865Z,101450
2018-01-23T10:06:20.367Z,101455
2018-01-23T10:08:48.892Z,101449
2018-01-23T10:11:17.385Z,101453
2018-01-23T10:13:46.233Z,101443
2018-01-23T10:16:14.738Z,101450
2018-01-23T10:18:43.171Z,101445
2018-01-23T10:21:11.679Z,101443
2018-01-23T10:23:40.192Z,101451
2018-01-23T10:26:09.084Z,101458
2018-01-23T10:28:37.564Z,101446
2018-01-23T10:31:06.021Z,101442
2018-01-23T10:33:34.501Z,101447
2018-01-23T10:36:03.026Z,101443
2018-01-23T10:38:32.248Z,101435
2018-01-23T10:41:00.737Z,101431
2018-01-23T10:43:29.185Z,101437
2018-01-23T10:45:58.392Z,101434
2018-01-23T10:48:27.565Z,101425
2018-01-23T10:50:55.992Z,101424
2018-01-23T10:53:24.770Z,101425
2018-01-23T10:55:53.258Z,101428
2018-01-23T10:58:21.716Z,101420
2018-01-23T11:00:55.481Z,101413
2018-01-23T11:03:23.931Z,101425
2018-01-23T11:05:52.400Z,101418
2018-01-23T11:08:20.840Z,101422
2018-01-23T11:10:49.309Z,101423
2018-01-23T11:13:17.799Z,101427
2018-01-23T11:15:46.236Z,101414
2018-01-23T11:18:15.354Z,101412
2018-01-23T11:20:43.800Z,101421
2018-01-23T11:23:12.257Z,101416
2018-01-23T11:25:41.046Z,101406
2018-01-23T11:28:10.346Z,101413
2018-01-23T11:30:39.872Z,101402
2018-01-23T11:33:09.073Z,101408
2018-01-23T11:35:37.629Z,101410
2018-01-23T11:38:06.728Z,101390
2018-01-23T11:40:35.181Z,101412
2018-01-23T11:43:03.665Z,101405
2018-01-23T11:45:32.192Z,101410
2018-01-23T11:48:01.478Z,101410
2018-01-23T11:50:30.760Z,101404
2018-01-23T11:52:59.422Z,101404
2018-01-23T11:55:28.107Z,101409
2018-01-23T11:57:57.340Z,101411
2018-01-23T12:00:27.103Z,101403
2018-01-23T12:02:55.576Z,101392
2018-01-23T12:05:24.268Z,101400
2018-01-23T12:07:52.728Z,101395
2018-01-23T12:10:21.455Z,101396
2018-01-23T12:12:50.611Z,101379
2018-01-23T12:15:19.814Z,101394
2018-01-23T12:17:48.276Z,101393
2018-01-23T12:20:17.464Z,101393
2018-01-23T12:22:46.013Z,101395
2018-01-23T12:25:14.461Z,101392
2018-01-23T12:27:42.916Z,101393
2018-01-23T12:30:12.117Z,101390
2018-01-23T12:32:41.422Z,101385
2018-01-23T12:35:10.611Z,101376
2018-01-23T12:37:39.813Z,101395
2018-01-23T12:40:09.021Z,101396
2018-01-23T12:42:38.201Z,101392
2018-01-23T12:45:07.681Z,101384
2018-01-23T12:47:36.104Z,101390
2018-01-23T12:50:05.338Z,101381
2018-01-23T12:52:34.541Z,101394
2018-01-23T12:55:03.131Z,101373
2018-01-23T12:57:31.558Z,101385
2018-01-23T13:00:00.781Z,101381
2018-01-23T13:02:29.369Z,101378
2018-01-23T13:04:57.909Z,101369
2018-01-23T13:07:27.129Z,101375
2018-01-23T13:09:56.044Z,101373
2018-01-23T13:12:24.731Z,101383
2018-01-23T13:14:53.257Z,101373
2018-01-23T13:17:21.953Z,101369
2018-01-23T13:19:50.582Z,101380
2018-01-23T13:22:19.045Z,101365
2018-01-23T13:24:47.536Z,101358
2018-01-23T13:27:16.029Z,101361
2018-01-23T13:29:44.464Z,101355
2018-01-23T13:32:12.992Z,101352
2018-01-23T13:34:41.449Z,101348
2018-01-23T13:37:09.952Z,101347
2018-01-23T13:39:38.439Z,101337
2018-01-23T13:42:06.940Z,101348
2018-01-23T13:44:35.445Z,101337
2018-01-23T13:47:03.869Z,101339
2018-01-23T13:49:32.301Z,101333
2018-01-23T13:52:01.662Z,101328
2018-01-23T13:54:30.372Z,101320
2018-01-23T13:56:59.184Z,101325
2018-01-23T13:59:27.637Z,101323
2018-01-23T14:01:56.244Z,101321
2018-01-23T14:04:24.714Z,101313
2018-01-23T14:06:53.237Z,101314
2018-01-23T14:09:22.776Z,101314
2018-01-23T14:11:51.416Z,101304
2018-01-23T14:14:20.075Z,101304
2018-01-23T14:16:48.757Z,101308
2018-01-23T14:19:17.443Z,101303
2018-01-23T14:21:46.522Z,101305
2018-01-23T14:24:15.231Z,101301
2018-01-23T14:26:44.106Z,101302
2018-01-23T14:29:12.816Z,101301
2018-01-23T14:31:41.298Z,101302
2018-01-23T14:34:09.731Z,101306
2018-01-23T14:36:38.276Z,101292
2018-01-23T14:39:07.121Z,101299
2018-01-23T14:41:35.877Z,101290
2018-01-23T14:44:05.020Z,101279
2018-01-23T14:46:33.566Z,101284
2018-01-23T14:49:02.037Z,101279
2018-01-23T14:51:31.241Z,101270
2018-01-23T14:54:00.445Z,101273
2018-01-23T14:56:28.868Z,101282
2018-01-23T14:58:57.340Z,101277
2018-01-23T15:01:25.784Z,101274
2018-01-23T15:03:54.633Z,101265
2018-01-23T15:06:23.276Z,101270
2018-01-23T15:08:51.964Z,101268
2018-01-23T15:11:20.470Z,101267
2018-01-23T15:13:49.333Z,101261
2018-01-23T15:16:18.044Z,101268
2018-01-23T15:18:46.824Z,101272
2018-01-23T15:21:15.669Z,101258
2018-01-23T15:23:44.860Z,101268
2018-01-23T15:26:13.402Z,101267
2018-01-23T15:28:41.870Z,101261
2018-01-23T15:31:10.356Z,101259
2018-01-23T15:33:39.053Z,101261
2018-01-23T15:36:07.990Z,101267
2018-01-23T15:38:36.874Z,101258
2018-01-23T15:41:05.500Z,101257
2018-01-23T15:43:34.000Z,101249
2018-01-23T15:46:02.666Z,101244
2018-01-23T15:48:31.220Z,101244
2018-01-23T15:51:00.497Z,101232
2018-01-23T15:53:28.950Z,101242
2018-01-23T15:55:57.721Z,101241
2018-01-23T15:58:26.185Z,101243
2018-01-23T16:00:54.840Z,101235
2018-01-23T16:03:24.349Z,101247
2018-01-23T16:05:52.783Z,101237
2018-01-23T16:08:21.260Z,101243
2018-01-23T16:10:50.124Z,101235
2018-01-23T16:13:18.692Z,101224
2018-01-23T16:15:48.293Z,101229
2018-01-23T16:18:17.041Z,101225
2018-01-23T16:20:46.245Z,101219
2018-01-23T16:23:14.701Z,101221
2018-01-23T16:25:43.157Z,101222
2018-01-23T16:28:12.388Z,101220
2018-01-23T16:30:40.832Z,101219
2018-01-23T16:33:10.369Z,101218
2018-01-23T16:35:38.842Z,101226
2018-01-23T16:38:07.328Z,101216
2018-01-23T16:40:35.759Z,101212
2018-01-23T16:43:04.241Z,101196
2018-01-23T16:45:32.726Z,101188
2018-01-23T16:48:01.156Z,101191
2018-01-23T16:50:29.597Z,101191
2018-01-23T16:52:58.418Z,101187
2018-01-23T16:55:26.969Z,101191
2018-01-23T16:57:55.588Z,101182
2018-01-23T17:00:24.052Z,101175
2018-01-23T17:02:52.553Z,101171
2018-01-23T17:05:21.017Z,101165
2018-01-23T17:07:49.480Z,101157
2018-01-23T17:10:18.663Z,101171
2018-01-23T17:12:47.885Z,101166
2018-01-23T17:15:16.361Z,101168
2018-01-23T17:17:45.502Z,101155
2018-01-23T17:20:13.962Z,101155
2018-01-23T17:22:42.414Z,101144
2018-01-23T17:25:11.163Z,101138
2018-01-23T17:27:40.069Z,101138
2018-01-23T17:30:08.528Z,101136
2018-01-23T17:32:36.970Z,101131
2018-01-23T17:35:06.220Z,101122
2018-01-23T17:37:34.712Z,101119
2018-01-23T17:40:03.540Z,101121
2018-01-23T17:42:32.781Z,101121
2018-01-23T17:45:01.221Z,101126
2018-01-23T17:47:30.423Z,101116
2018-01-23T17:49:59.607Z,101123
2018-01-23T17:52:28.805Z,101120
2018-01-23T17:54:57.993Z,101119
2018-01-23T17:57:26.467Z,101116
2018-01-23T17:59:54.908Z,101108
2018-01-23T18:02:23.635Z,101116
2018-01-23T18:04:52.085Z,101136
2018-01-23T18:07:20.512Z,101113
2018-01-23T18:09:49.701Z,101106
2018-01-23T18:12:19.605Z,101114
2018-01-23T18:14:48.166Z,101096
2018-01-23T18:17:18.116Z,101101
2018-01-23T18:19:46.598Z,101078
2018-01-23T18:22:15.047Z,101072
2018-01-23T18:24:43.575Z,101073
2018-01-23T18:27:12.021Z,101066
2018-01-23T18:29:40.473Z,101067
2018-01-23T18:32:08.941Z,101054
2018-01-23T18:34:37.397Z,101058
2018-01-23T18:37:06.586Z,101057
2018-01-23T18:39:35.079Z,101044
2018-01-23T18:42:04.432Z,101042
2018-01-23T18:44:32.925Z,101039
2018-01-23T18:47:01.361Z,101049
2018-01-23T18:49:29.806Z,101039
2018-01-23T18:51:58.249Z,101026
2018-01-23T18:54:26.698Z,101034
2018-01-23T18:56:55.179Z,101032
2018-01-23T18:59:23.629Z,101020
2018-01-23T19:01:52.093Z,101018
2018-01-23T19:04:20.697Z,101007
2018-01-23T19:06:49.575Z,100994
2018-01-23T19:09:18.012Z,101014
2018-01-23T19:11:46.749Z,101013
2018-01-23T19:14:15.293Z,101001
2018-01-23T19:16:44.094Z,101001
2018-01-23T19:19:12.561Z,101000
2018-01-23T19:21:41.299Z,100982
2018-01-23T19:24:10.153Z,100975
2018-01-23T19:26:38.661Z,100967
2018-01-23T19:29:07.137Z,100966
2018-01-23T19:31:35.857Z,100957
2018-01-23T19:34:05.097Z,100973
2018-01-23T19:36:33.532Z,100980
2018-01-23T19:39:02.971Z,100982
2018-01-23T19:41:31.407Z,100983
2018-01-23T19:44:00.645Z,100988
2018-01-23T19:46:29.141Z,100985
2018-01-23T19:48:57.652Z,100990
2018-01-23T19:51:26.255Z,100971
2018-01-23T19:53:55.214Z,100974
2018-01-23T19:56:25.785Z,100966
2018-01-23T19:58:54.984Z,100979
2018-01-23T20:01:23.527Z,100969
2018-01-23T20:03:52.005Z,100968
2018-01-23T20:06:20.520Z,100954
2018-01-23T20:08:49.002Z,100911
2018-01-23T20:11:17.922Z,100948
2018-01-23T20:13:46.805Z,100938
2018-01-23T20:16:16.023Z,100941
2018-01-23T20:18:45.564Z,100937
2018-01-23T20:21:14.013Z,100933
2018-01-23T20:23:42.724Z,100938
2018-01-23T20:26:11.921Z,100923
2018-01-23T20:28:41.093Z,100926
2018-01-23T20:31:09.628Z,100929
2018-01-23T20:33:38.325Z,100932
2018-01-23T20:36:06.793Z,100920
2018-01-23T20:38:35.434Z,100922
2018-01-23T20:41:03.916Z,100931
2018-01-23T20:43:32.389Z,100926
2018-01-23T20:46:00.928Z,100925
2018-01-23T20:48:29.565Z,100930
2018-01-23T20:50:59.743Z,100934
2018-01-23T20:53:28.192Z,100925
2018-01-23T20:55:56.853Z,100911
2018-01-23T20:58:25.784Z,100916
2018-01-23T21:00:54.230Z,100927
2018-01-23T21:03:22.920Z,100925
2018-01-23T21:05:51.635Z,100917
2018-01-23T21:08:20.185Z,100925
2018-01-23T21:10:48.621Z,100915
2018-01-23T21:13:17.248Z,100907
2018-01-23T21:15:46.573Z,100925
2018-01-23T21:18:15.259Z,100923
2018-01-23T21:20:43.973Z,100921
2018-01-23T21:23:12.469Z,100934
2018-01-23T21:25:40.989Z,100919
2018-01-23T21:28:09.673Z,100922
2018-01-23T21:30:38.158Z,100930
2018-01-23T21:33:06.653Z,100935
2018-01-23T21:35:35.718Z,100919
2018-01-23T21:38:04.854Z,100924
2018-01-23T21:40:33.408Z,100921
2018-01-23T21:43:02.320Z,100921
2018-01-23T21:45:30.911Z,100914
2018-01-23T21:47:59.384Z,100906
2018-01-23T21:50:27.861Z,100901
2018-01-23T21:52:56.332Z,100897
2018-01-23T21:55:24.802Z,100892
2018-01-23T21:57:53.509Z,100879
2018-01-23T22:00:22.600Z,100880
2018-01-23T22:02:51.147Z,100867
2018-01-23T22:05:20.367Z,100880
2018-01-23T22:07:49.067Z,100875
2018-01-23T22:10:17.529Z,100874
2018-01-23T22:12:46.316Z,100868
2018-01-23T22:15:15.606Z,100881
2018-01-23T22:17:44.973Z,100861
2018-01-23T22:20:13.544Z,100868
2018-01-23T22:22:42.049Z,100849
2018-01-23T22:25:10.942Z,100852
2018-01-23T22:27:39.809Z,100847
2018-01-23T22:30:08.573Z,100851
2018-01-23T22:32:37.373Z,100844
2018-01-23T22:35:05.911Z,100838
2018-01-23T22:37:35.429Z,100830
2018-01-23T22:40:04.707Z,100835
2018-01-23T22:42:33.272Z,100837
2018-01-23T22:45:01.816Z,100832
2018-01-23T22:47:30.892Z,100831
2018-01-23T22:49:59.394Z,100815
2018-01-23T22:52:28.081Z,100812
2018-01-23T22:54:56.584Z,100817
2018-01-23T22:57:26.548Z,100811
2018-01-23T22:59:55.999Z,100818
2018-01-23T23:02:24.502Z,100814
2018-01-23T23:04:53.016Z,100826
2018-01-23T23:07:22.220Z,100821
2018-01-23T23:09:51.350Z,100823
2018-01-23T23:12:19.826Z,100824
2018-01-23T23:14:48.331Z,100812
2018-01-23T23:17:17.018Z,100812
2018-01-23T23:19:45.547Z,100821
2018-01-23T23:22:15.006Z,100808
2018-01-23T23:24:43.504Z,100809
2018-01-23T23:27:12.061Z,100803
2018-01-23T23:29:41.037Z,100803
2018-01-23T23:32:09.963Z,100803
2018-01-23T23:34:38.620Z,100802
2018-01-23T23:37:07.328Z,100787
2018-01-23T23:39:35.888Z,100795
2018-01-23T23:42:05.169Z,100801
2018-01-23T23:44:34.395Z,100793
2018-01-23T23:47:03.280Z,100797
2018-01-23T23:49:31.820Z,100791
2018-01-23T23:52:00.470Z,100794
2018-01-23T23:54:28.914Z,100808
2018-01-23T23:56:57.614Z,100806
2018-01-23T23:59:26.052Z,100809
